Time;durP1;ratioP1;P1;durP2;ratioP2;P2;SDS_P1;SDS_P2;PMS_P1;PMS_P2;Temp;Humidity;BMP_temperature;BMP_pressure;BME280_temperature;BME280_humidity;BME280_pressure;Samples;Min_cycle;Max_cycle;Signal;HPM_P1;HPM_P2
2024/02/21 00:00:05;;;;;;;3.92;2.60;;;;;;;;;;5012937;28;20195;-89
2024/02/21 00:02:33;;;;;;;2.70;2.30;;;;;;;;;;5016957;28;20222;-89
2024/02/21 00:05:00;;;;;;;4.20;2.85;;;;;;;;;;5012640;28;20682;-91
2024/02/21 00:07:28;;;;;;;2.35;2.15;;;;;;;;;;5012259;28;20223;-90
2024/02/21 00:09:56;;;;;;;6.18;4.15;;;;;;;;;;5012686;28;20210;-89
2024/02/21 00:12:23;;;;;;;8.07;3.40;;;;;;;;;;5012327;28;20229;-89
2024/02/21 00:14:52;;;;;;;3.25;2.38;;;;;;;;;;5012270;28;20683;-89
2024/02/21 00:17:20;;;;;;;4.97;2.75;;;;;;;;;;5015175;28;20227;-89
2024/02/21 00:19:47;;;;;;;2.72;2.03;;;;;;;;;;5015820;28;20686;-89
2024/02/21 00:22:15;;;;;;;2.38;1.85;;;;;;;;;;5015961;28;20702;-89
2024/02/21 00:24:42;;;;;;;4.10;2.20;;;;;;;;;;5015971;28;20206;-89
2024/02/21 00:27:10;;;;;;;6.13;3.08;;;;;;;;;;5015817;28;20219;-89
2024/02/21 00:29:38;;;;;;;4.75;3.00;;;;;;;;;;5015693;28;20285;-90
2024/02/21 00:32:07;;;;;;;3.10;1.95;;;;;;;;;;5015542;28;20310;-90
2024/02/21 00:34:35;;;;;;;6.88;2.63;;;;;;;;;;5015951;28;20597;-90
2024/02/21 00:37:03;;;;;;;2.80;2.05;;;;;;;;;;5015784;28;20257;-89
2024/02/21 00:39:30;;;;;;;2.67;2.03;;;;;;;;;;5015699;28;20286;-88
2024/02/21 00:41:58;;;;;;;7.13;2.70;;;;;;;;;;5015534;28;20219;-90
2024/02/21 00:44:25;;;;;;;5.88;2.75;;;;;;;;;;5015305;28;20294;-90
2024/02/21 00:46:53;;;;;;;4.50;2.95;;;;;;;;;;5015447;28;20704;-89
2024/02/21 00:49:22;;;;;;;2.75;2.25;;;;;;;;;;5015433;28;20242;-89
2024/02/21 00:51:50;;;;;;;4.35;2.33;;;;;;;;;;5014961;28;20704;-89
2024/02/21 00:54:17;;;;;;;4.82;2.60;;;;;;;;;;5016259;28;20290;-89
2024/02/21 00:56:45;;;;;;;5.32;2.88;;;;;;;;;;5015547;28;20207;-90
2024/02/21 00:59:13;;;;;;;7.60;3.38;;;;;;;;;;5015294;28;20291;-89
2024/02/21 01:01:42;;;;;;;6.22;3.88;;;;;;;;;;5014921;28;20577;-90
2024/02/21 01:04:10;;;;;;;3.45;2.70;;;;;;;;;;5015492;28;20234;-89
2024/02/21 01:06:42;;;;;;;4.22;2.88;;;;;;;;;;5015315;28;20223;-90
2024/02/21 01:09:10;;;;;;;2.83;2.40;;;;;;;;;;5015167;28;20673;-90
2024/02/21 01:11:37;;;;;;;3.03;2.17;;;;;;;;;;5015665;28;20275;-89
2024/02/21 01:14:05;;;;;;;4.25;2.72;;;;;;;;;;5025983;28;20258;-88
2024/02/21 01:16:32;;;;;;;4.95;3.20;;;;;;;;;;5032163;28;20219;-89
2024/02/21 01:19:00;;;;;;;5.00;2.67;;;;;;;;;;5031967;28;20207;-90
2024/02/21 01:21:27;;;;;;;6.85;3.45;;;;;;;;;;5028653;28;20285;-90
2024/02/21 01:23:56;;;;;;;5.32;3.47;;;;;;;;;;5032530;28;20198;-90
2024/02/21 01:26:24;;;;;;;4.80;2.58;;;;;;;;;;5026122;28;20281;-91
2024/02/21 01:28:52;;;;;;;5.03;3.08;;;;;;;;;;5025645;28;20282;-90
2024/02/21 01:31:20;;;;;;;4.07;3.10;;;;;;;;;;5031803;28;20207;-90
2024/02/21 01:33:47;;;;;;;4.00;3.63;;;;;;;;;;5029572;28;20234;-90
2024/02/21 01:36:15;;;;;;;5.03;3.03;;;;;;;;;;5020376;28;20203;-89
2024/02/21 01:38:43;;;;;;;4.25;3.35;;;;;;;;;;5015630;28;20209;-90
2024/02/21 01:41:11;;;;;;;5.90;3.40;;;;;;;;;;5014770;28;20213;-89
2024/02/21 01:43:39;;;;;;;5.85;2.97;;;;;;;;;;5015075;28;20219;-90
2024/02/21 01:46:07;;;;;;;4.57;3.03;;;;;;;;;;5015516;28;20202;-91
2024/02/21 01:48:35;;;;;;;3.45;2.45;;;;;;;;;;5014662;28;20295;-90
2024/02/21 01:51:04;;;;;;;6.63;3.10;;;;;;;;;;5014426;28;20618;-89
2024/02/21 01:53:35;;;;;;;5.00;2.38;;;;;;;;;;5014092;28;20632;-90
2024/02/21 01:56:04;;;;;;;1.80;1.70;;;;;;;;;;5014221;28;20207;-89
2024/02/21 01:58:36;;;;;;;3.83;2.42;;;;;;;;;;5014085;28;20258;-90
2024/02/21 02:01:04;;;;;;;5.28;2.88;;;;;;;;;;5014358;28;20199;-89
2024/02/21 02:03:32;;;;;;;3.85;3.20;;;;;;;;;;5013741;28;20306;-90
2024/02/21 02:06:00;;;;;;;3.78;2.40;;;;;;;;;;5014023;28;20660;-90
2024/02/21 02:08:28;;;;;;;2.17;1.92;;;;;;;;;;5013992;28;20226;-89
2024/02/21 02:10:55;;;;;;;1.70;1.60;;;;;;;;;;5015407;28;20213;-89
2024/02/21 02:13:23;;;;;;;5.30;3.00;;;;;;;;;;5015247;28;20309;-90
2024/02/21 02:15:52;;;;;;;2.63;2.22;;;;;;;;;;5015265;28;20724;-90
2024/02/21 02:18:21;;;;;;;4.05;3.13;;;;;;;;;;5013818;28;20286;-89
2024/02/21 02:20:49;;;;;;;5.03;2.65;;;;;;;;;;5014566;28;20286;-89
2024/02/21 02:23:26;;;;;;;3.35;2.83;;;;;;;;;;5035505;28;20219;-89
2024/02/21 02:25:54;;;;;;;3.25;2.60;;;;;;;;;;5038826;28;20290;-89
2024/02/21 02:28:22;;;;;;;3.65;2.53;;;;;;;;;;5038880;28;20217;-89
2024/02/21 02:30:50;;;;;;;4.03;2.63;;;;;;;;;;5038755;28;20202;-89
2024/02/21 02:33:18;;;;;;;1.88;1.45;;;;;;;;;;5018613;28;20321;-90
2024/02/21 02:35:46;;;;;;;3.75;2.63;;;;;;;;;;5015245;28;20617;-90
2024/02/21 02:38:14;;;;;;;3.90;2.72;;;;;;;;;;5014091;28;20265;-89
2024/02/21 02:40:43;;;;;;;4.90;2.33;;;;;;;;;;5013870;28;20278;-89
2024/02/21 02:43:11;;;;;;;3.95;2.22;;;;;;;;;;5013520;28;20313;-90
2024/02/21 02:45:39;;;;;;;3.33;2.05;;;;;;;;;;5013447;28;20286;-89
2024/02/21 02:48:07;;;;;;;2.65;2.38;;;;;;;;;;5013279;28;20223;-89
2024/02/21 02:50:35;;;;;;;7.88;2.83;;;;;;;;;;5013547;28;20302;-89
2024/02/21 02:53:03;;;;;;;3.45;2.05;;;;;;;;;;5013322;28;20322;-89
2024/02/21 02:55:30;;;;;;;2.85;2.28;;;;;;;;;;5014478;28;20285;-89
2024/02/21 02:57:59;;;;;;;4.18;2.72;;;;;;;;;;5013830;28;20199;-89
2024/02/21 03:00:27;;;;;;;4.55;2.55;;;;;;;;;;5013098;28;20199;-89
2024/02/21 03:02:55;;;;;;;3.60;2.47;;;;;;;;;;5013071;28;20254;-89
2024/02/21 03:05:23;;;;;;;5.55;2.72;;;;;;;;;;5013165;28;20234;-90
2024/02/21 03:07:51;;;;;;;4.57;2.13;;;;;;;;;;5013342;28;20233;-91
2024/02/21 03:10:18;;;;;;;2.60;2.00;;;;;;;;;;5015336;28;20640;-90
2024/02/21 03:12:46;;;;;;;2.35;2.10;;;;;;;;;;5012800;28;20290;-90
2024/02/21 03:15:16;;;;;;;3.72;2.78;;;;;;;;;;5012852;28;20218;-89
2024/02/21 03:17:43;;;;;;;4.75;2.75;;;;;;;;;;5013262;28;20213;-90
2024/02/21 03:20:13;;;;;;;8.00;3.25;;;;;;;;;;5013003;28;20199;-90
2024/02/21 03:22:40;;;;;;;4.18;2.72;;;;;;;;;;5012515;28;20227;-90
2024/02/21 03:25:10;;;;;;;2.90;2.45;;;;;;;;;;5012934;28;20203;-89
2024/02/21 03:27:37;;;;;;;3.40;2.10;;;;;;;;;;5012604;28;20209;-89
2024/02/21 03:30:06;;;;;;;4.85;2.60;;;;;;;;;;5012557;28;20695;-89
2024/02/21 03:32:35;;;;;;;3.42;2.40;;;;;;;;;;5012334;28;20250;-89
2024/02/21 03:35:03;;;;;;;2.15;1.83;;;;;;;;;;5012611;28;20214;-89
2024/02/21 03:37:31;;;;;;;3.95;2.90;;;;;;;;;;5012486;28;20291;-90
2024/02/21 03:39:58;;;;;;;3.55;2.58;;;;;;;;;;5012446;28;20289;-89
2024/02/21 03:42:26;;;;;;;4.60;2.70;;;;;;;;;;5012160;28;20302;-90
2024/02/21 03:44:53;;;;;;;3.55;2.83;;;;;;;;;;5012298;28;20227;-89
2024/02/21 03:47:21;;;;;;;4.43;2.92;;;;;;;;;;5012514;28;20202;-89
2024/02/21 03:49:50;;;;;;;4.70;3.20;;;;;;;;;;5012854;28;20227;-90
2024/02/21 03:52:18;;;;;;;5.93;3.50;;;;;;;;;;5022519;28;20231;-90
2024/02/21 03:54:45;;;;;;;4.68;3.05;;;;;;;;;;5020899;28;20191;-89
2024/02/21 03:57:13;;;;;;;4.65;2.80;;;;;;;;;;5016898;28;20215;-90
2024/02/21 03:59:41;;;;;;;9.45;4.93;;;;;;;;;;5016595;28;20213;-90
2024/02/21 04:02:08;;;;;;;5.22;2.58;;;;;;;;;;5016195;28;20234;-90
2024/02/21 04:04:37;;;;;;;5.85;3.30;;;;;;;;;;5015958;28;20198;-90
2024/02/21 04:07:08;;;;;;;4.85;2.72;;;;;;;;;;5016050;28;20205;-90
2024/02/21 04:09:36;;;;;;;6.60;3.60;;;;;;;;;;5016117;28;20230;-90
2024/02/21 04:12:03;;;;;;;7.75;3.50;;;;;;;;;;5015870;28;20310;-89
2024/02/21 04:14:31;;;;;;;6.40;3.88;;;;;;;;;;5016097;28;20294;-89
2024/02/21 04:16:59;;;;;;;6.57;4.38;;;;;;;;;;5016169;28;20199;-89
2024/02/21 04:19:26;;;;;;;6.65;5.43;;;;;;;;;;5016115;28;20199;-89
2024/02/21 04:21:54;;;;;;;7.18;4.18;;;;;;;;;;5015590;28;20306;-89
2024/02/21 04:24:23;;;;;;;7.20;4.50;;;;;;;;;;5015943;28;20290;-89
2024/02/21 04:26:50;;;;;;;6.13;3.70;;;;;;;;;;5015926;28;20597;-89
2024/02/21 04:29:18;;;;;;;6.32;3.97;;;;;;;;;;5015881;28;20251;-90
2024/02/21 04:31:45;;;;;;;6.47;3.95;;;;;;;;;;5015425;28;20222;-89
2024/02/21 04:34:13;;;;;;;4.85;3.67;;;;;;;;;;5015890;28;20594;-89
2024/02/21 04:36:41;;;;;;;5.88;2.80;;;;;;;;;;5015645;28;20209;-90
2024/02/21 04:39:08;;;;;;;4.82;3.35;;;;;;;;;;5015602;28;20289;-90
2024/02/21 04:41:37;;;;;;;5.45;3.00;;;;;;;;;;5015362;28;20267;-90
2024/02/21 04:44:05;;;;;;;4.68;3.25;;;;;;;;;;5026463;28;20270;-90
2024/02/21 04:46:32;;;;;;;4.43;3.55;;;;;;;;;;5035773;28;20223;-90
2024/02/21 04:49:00;;;;;;;8.45;3.45;;;;;;;;;;5035035;28;20246;-89
2024/02/21 04:51:28;;;;;;;3.42;2.90;;;;;;;;;;5025543;28;20196;-90
2024/02/21 04:53:55;;;;;;;11.77;3.97;;;;;;;;;;5015264;28;20202;-89
2024/02/21 04:56:23;;;;;;;6.70;4.20;;;;;;;;;;5015178;28;20214;-89
2024/02/21 04:58:52;;;;;;;4.88;3.85;;;;;;;;;;5015380;28;20202;-90
2024/02/21 05:01:19;;;;;;;5.38;3.50;;;;;;;;;;5014524;28;20195;-89
2024/02/21 05:03:47;;;;;;;5.65;2.80;;;;;;;;;;5015475;28;20245;-90
2024/02/21 05:06:14;;;;;;;3.88;3.47;;;;;;;;;;5015228;28;20209;-89
2024/02/21 05:08:42;;;;;;;4.57;2.97;;;;;;;;;;5014870;28;20733;-90
2024/02/21 05:11:10;;;;;;;5.88;3.80;;;;;;;;;;5019728;28;20499;-89
2024/02/21 05:13:37;;;;;;;6.68;4.30;;;;;;;;;;5014879;28;20618;-90
2024/02/21 05:16:07;;;;;;;6.45;4.38;;;;;;;;;;5015101;28;20652;-89
2024/02/21 05:18:35;;;;;;;4.30;3.10;;;;;;;;;;5014831;28;20575;-89
2024/02/21 05:21:03;;;;;;;4.97;2.80;;;;;;;;;;5014643;28;20290;-90
2024/02/21 05:23:31;;;;;;;7.25;5.03;;;;;;;;;;5014644;28;20655;-90
2024/02/21 05:25:58;;;;;;;5.78;3.55;;;;;;;;;;5018743;28;20234;-90
2024/02/21 05:28:26;;;;;;;4.68;2.75;;;;;;;;;;5015220;28;20618;-90
2024/02/21 05:30:53;;;;;;;5.80;4.07;;;;;;;;;;5014556;28;20237;-89
2024/02/21 05:33:22;;;;;;;4.05;3.53;;;;;;;;;;5014529;28;20306;-90
2024/02/21 05:35:50;;;;;;;4.65;3.13;;;;;;;;;;5014364;28;20663;-90
2024/02/21 05:38:18;;;;;;;4.18;3.67;;;;;;;;;;5014469;28;20310;-90
2024/02/21 05:40:47;;;;;;;6.47;3.80;;;;;;;;;;5015410;28;20554;-89
2024/02/21 05:43:15;;;;;;;4.45;2.97;;;;;;;;;;5014170;28;20310;-90
2024/02/21 05:45:42;;;;;;;5.70;3.45;;;;;;;;;;5014277;28;20626;-90
2024/02/21 05:48:12;;;;;;;6.10;3.35;;;;;;;;;;5014707;28;20194;-90
2024/02/21 05:50:41;;;;;;;5.50;4.13;;;;;;;;;;5015597;28;20306;-89
2024/02/21 05:53:10;;;;;;;4.25;3.47;;;;;;;;;;5014060;28;20306;-90
2024/02/21 05:55:37;;;;;;;4.90;2.88;;;;;;;;;;5014289;28;20203;-89
2024/02/21 05:58:05;;;;;;;3.70;3.30;;;;;;;;;;5013852;28;20660;-90
2024/02/21 06:00:33;;;;;;;2.67;2.45;;;;;;;;;;5014013;28;20633;-90
2024/02/21 06:03:01;;;;;;;2.55;2.35;;;;;;;;;;5014016;28;20633;-89
2024/02/21 06:05:29;;;;;;;3.70;2.55;;;;;;;;;;5013965;28;20703;-89
2024/02/21 06:07:58;;;;;;;3.08;2.65;;;;;;;;;;5014064;28;20286;-90
2024/02/21 06:10:26;;;;;;;2.53;2.30;;;;;;;;;;5013610;28;20223;-90
2024/02/21 06:12:53;;;;;;;3.75;3.45;;;;;;;;;;5013178;28;20310;-90
2024/02/21 06:15:21;;;;;;;2.38;2.05;;;;;;;;;;5017246;28;20222;-89
2024/02/21 06:17:48;;;;;;;2.85;2.30;;;;;;;;;;5014187;28;20226;-89
2024/02/21 06:20:18;;;;;;;2.50;2.30;;;;;;;;;;5013831;28;20290;-90
2024/02/21 06:22:45;;;;;;;2.50;2.28;;;;;;;;;;5013525;28;20696;-90
2024/02/21 06:25:14;;;;;;;2.55;2.00;;;;;;;;;;5013552;28;20282;-89
2024/02/21 06:27:42;;;;;;;3.17;2.70;;;;;;;;;;5013869;28;20564;-89
2024/02/21 06:30:11;;;;;;;2.42;2.08;;;;;;;;;;5013533;28;20223;-89
2024/02/21 06:32:38;;;;;;;2.97;2.20;;;;;;;;;;5013083;28;20617;-90
2024/02/21 06:35:07;;;;;;;4.15;2.63;;;;;;;;;;5013686;28;20228;-89
2024/02/21 06:37:35;;;;;;;3.00;2.33;;;;;;;;;;5013762;28;20661;-89
2024/02/21 06:40:03;;;;;;;3.40;2.70;;;;;;;;;;5013885;28;20587;-90
2024/02/21 06:42:32;;;;;;;3.97;2.80;;;;;;;;;;5013676;28;20218;-90
2024/02/21 06:45:00;;;;;;;2.55;1.90;;;;;;;;;;5013380;28;20678;-90
2024/02/21 06:47:27;;;;;;;2.10;1.90;;;;;;;;;;5013327;28;20234;-90
2024/02/21 06:49:55;;;;;;;2.90;2.30;;;;;;;;;;5013114;28;20297;-90
2024/02/21 06:52:23;;;;;;;2.55;2.10;;;;;;;;;;5013265;28;20310;-89
2024/02/21 06:54:51;;;;;;;3.55;2.50;;;;;;;;;;5013312;28;20683;-89
2024/02/21 06:57:18;;;;;;;2.90;2.60;;;;;;;;;;5012912;28;20205;-89
2024/02/21 06:59:47;;;;;;;3.25;2.95;;;;;;;;;;5013065;28;20282;-89
2024/02/21 07:02:15;;;;;;;5.47;2.70;;;;;;;;;;5012887;28;20318;-89
2024/02/21 07:04:43;;;;;;;5.82;3.15;;;;;;;;;;5012834;28;20281;-89
2024/02/21 07:07:11;;;;;;;3.03;2.75;;;;;;;;;;5012971;28;20210;-89
2024/02/21 07:09:38;;;;;;;6.10;3.40;;;;;;;;;;5013276;28;20671;-89
2024/02/21 07:12:06;;;;;;;6.95;4.07;;;;;;;;;;5012371;28;20234;-89
2024/02/21 07:14:34;;;;;;;2.80;2.50;;;;;;;;;;5013555;28;20198;-90
2024/02/21 07:17:03;;;;;;;2.60;2.25;;;;;;;;;;5013266;28;20582;-91
2024/02/21 07:19:31;;;;;;;2.05;1.95;;;;;;;;;;5012892;28;20209;-91
2024/02/21 07:21:58;;;;;;;7.32;3.33;;;;;;;;;;5012946;28;20668;-90
2024/02/21 07:24:26;;;;;;;3.17;2.75;;;;;;;;;;5012345;28;20285;-90
2024/02/21 07:26:54;;;;;;;2.92;2.58;;;;;;;;;;5012969;28;20293;-90
2024/02/21 07:29:21;;;;;;;3.83;2.83;;;;;;;;;;5012895;28;20203;-91
2024/02/21 07:31:51;;;;;;;3.78;3.10;;;;;;;;;;5011816;28;20253;-89
2024/02/21 07:34:21;;;;;;;7.78;3.70;;;;;;;;;;5013003;28;20195;-89
2024/02/21 07:36:48;;;;;;;4.57;3.17;;;;;;;;;;5012760;28;20199;-90
2024/02/21 07:39:16;;;;;;;5.53;3.15;;;;;;;;;;5012781;28;20297;-90
2024/02/21 07:41:46;;;;;;;4.15;2.25;;;;;;;;;;5012263;28;20261;-90
2024/02/21 07:44:13;;;;;;;4.43;2.80;;;;;;;;;;5012457;28;20202;-89
2024/02/21 07:46:41;;;;;;;3.60;2.38;;;;;;;;;;5012447;28;20674;-90
2024/02/21 07:49:08;;;;;;;4.25;2.72;;;;;;;;;;5012555;28;20198;-92
2024/02/21 07:51:37;;;;;;;4.72;3.35;;;;;;;;;;5012317;28;20700;-91
2024/02/21 07:54:05;;;;;;;5.28;3.03;;;;;;;;;;5012561;28;20202;-90
2024/02/21 07:56:33;;;;;;;4.20;3.45;;;;;;;;;;5012575;28;20637;-91
2024/02/21 07:59:00;;;;;;;6.82;3.70;;;;;;;;;;5012498;28;20612;-90
2024/02/21 08:01:28;;;;;;;5.00;3.75;;;;;;;;;;5012165;28;20230;-90
2024/02/21 08:03:55;;;;;;;3.83;3.10;;;;;;;;;;5012055;28;20707;-91
2024/02/21 08:06:23;;;;;;;6.90;2.92;;;;;;;;;;5012249;28;20207;-91
2024/02/21 08:08:52;;;;;;;5.85;3.10;;;;;;;;;;5013878;28;20290;-90
2024/02/21 08:11:20;;;;;;;6.07;4.22;;;;;;;;;;5011896;28;20703;-90
2024/02/21 08:13:48;;;;;;;6.60;3.67;;;;;;;;;;5012025;28;20712;-92
2024/02/21 08:16:15;;;;;;;4.70;3.70;;;;;;;;;;5012622;28;20199;-89
2024/02/21 08:18:44;;;;;;;4.38;3.00;;;;;;;;;;5012646;28;20306;-89
2024/02/21 08:21:12;;;;;;;6.55;2.92;;;;;;;;;;5012271;28;20744;-90
2024/02/21 08:23:39;;;;;;;8.25;3.90;;;;;;;;;;5012435;28;20310;-90
2024/02/21 08:26:08;;;;;;;5.85;4.30;;;;;;;;;;5012900;28;20592;-92
2024/02/21 08:28:36;;;;;;;3.92;2.70;;;;;;;;;;5013445;28;20619;-91
2024/02/21 08:31:04;;;;;;;2.88;2.60;;;;;;;;;;5014019;28;20254;-91
2024/02/21 08:33:31;;;;;;;3.88;2.53;;;;;;;;;;5012121;28;20310;-90
2024/02/21 08:35:59;;;;;;;12.45;4.22;;;;;;;;;;5013183;28;20285;-90
2024/02/21 08:38:26;;;;;;;3.05;2.78;;;;;;;;;;5021214;28;20230;-90
2024/02/21 08:40:54;;;;;;;4.90;3.38;;;;;;;;;;5016368;28;20294;-91
2024/02/21 08:43:23;;;;;;;5.88;3.17;;;;;;;;;;5015651;28;20219;-90
2024/02/21 08:45:50;;;;;;;4.80;3.13;;;;;;;;;;5016657;28;20202;-91
2024/02/21 08:48:18;;;;;;;4.82;2.78;;;;;;;;;;5016398;28;20198;-90
2024/02/21 08:50:45;;;;;;;3.97;2.80;;;;;;;;;;5016509;28;20214;-90
2024/02/21 08:53:14;;;;;;;4.78;3.15;;;;;;;;;;5026279;28;20234;-90
2024/02/21 08:55:41;;;;;;;4.40;3.10;;;;;;;;;;5034798;28;20263;-90
2024/02/21 08:58:09;;;;;;;3.10;2.65;;;;;;;;;;5041298;28;20202;-90
2024/02/21 09:00:38;;;;;;;5.32;2.88;;;;;;;;;;5040761;28;20214;-89
2024/02/21 09:03:06;;;;;;;7.20;3.22;;;;;;;;;;5040401;28;20214;-89
2024/02/21 09:05:34;;;;;;;4.75;2.70;;;;;;;;;;5026058;28;20274;-90
2024/02/21 09:08:02;;;;;;;2.03;1.92;;;;;;;;;;5017875;28;20731;-90
2024/02/21 09:10:30;;;;;;;5.20;3.03;;;;;;;;;;5016829;28;20286;-90
2024/02/21 09:12:57;;;;;;;4.63;2.40;;;;;;;;;;5015986;28;20223;-90
2024/02/21 09:15:25;;;;;;;2.90;2.30;;;;;;;;;;5016390;28;20290;-90
2024/02/21 09:17:54;;;;;;;3.45;2.58;;;;;;;;;;5016050;28;20681;-90
2024/02/21 09:20:21;;;;;;;2.58;2.30;;;;;;;;;;5019504;28;20270;-91
2024/02/21 09:22:49;;;;;;;2.50;2.30;;;;;;;;;;5017710;28;20301;-89
2024/02/21 09:25:17;;;;;;;6.63;3.13;;;;;;;;;;5015704;28;20286;-90
2024/02/21 09:27:46;;;;;;;3.28;2.65;;;;;;;;;;5015569;28;20203;-90
2024/02/21 09:30:14;;;;;;;2.42;1.92;;;;;;;;;;5015676;28;20282;-90
2024/02/21 09:32:42;;;;;;;3.83;2.75;;;;;;;;;;5112104;22;20286;-94
